sensor_id;sensor_type;location;lat;lon;timestamp;P1;durP1;ratioP1;P2;durP2;ratioP2
72557;SDS011;60583;50.094;8.748;2024-01-06T00:00:08;5.22;;;2.00;;
72557;SDS011;60583;50.094;8.748;2024-01-06T00:02:53;4.88;;;1.58;;
72557;SDS011;60583;50.094;8.748;2024-01-06T00:05:37;6.10;;;1.88;;
72557;SDS011;60583;50.094;8.748;2024-01-06T00:08:21;5.68;;;1.98;;
72557;SDS011;60583;50.094;8.748;2024-01-06T00:11:05;6.90;;;2.83;;
72557;SDS011;60583;50.094;8.748;2024-01-06T00:13:49;7.40;;;2.72;;
72557;SDS011;60583;50.094;8.748;2024-01-06T00:16:33;9.02;;;3.20;;
72557;SDS011;60583;50.094;8.748;2024-01-06T00:19:17;9.57;;;2.60;;
72557;SDS011;60583;50.094;8.748;2024-01-06T00:22:01;7.53;;;2.72;;
72557;SDS011;60583;50.094;8.748;2024-01-06T00:24:46;6.75;;;2.42;;
72557;SDS011;60583;50.094;8.748;2024-01-06T00:27:30;6.13;;;2.30;;
72557;SDS011;60583;50.094;8.748;2024-01-06T00:30:14;6.13;;;2.28;;
72557;SDS011;60583;50.094;8.748;2024-01-06T00:32:58;4.90;;;1.83;;
72557;SDS011;60583;50.094;8.748;2024-01-06T00:35:42;5.97;;;2.20;;
72557;SDS011;60583;50.094;8.748;2024-01-06T00:38:26;6.45;;;2.40;;
72557;SDS011;60583;50.094;8.748;2024-01-06T00:41:10;6.68;;;2.03;;
72557;SDS011;60583;50.094;8.748;2024-01-06T00:43:54;4.30;;;1.80;;
72557;SDS011;60583;50.094;8.748;2024-01-06T00:46:38;6.30;;;1.95;;
72557;SDS011;60583;50.094;8.748;2024-01-06T00:49:22;4.95;;;2.05;;
72557;SDS011;60583;50.094;8.748;2024-01-06T00:52:06;5.88;;;2.00;;
72557;SDS011;60583;50.094;8.748;2024-01-06T00:54:50;5.28;;;1.80;;
72557;SDS011;60583;50.094;8.748;2024-01-06T00:57:34;6.72;;;2.22;;
72557;SDS011;60583;50.094;8.748;2024-01-06T01:00:18;6.90;;;2.20;;
72557;SDS011;60583;50.094;8.748;2024-01-06T01:03:02;5.53;;;2.00;;
72557;SDS011;60583;50.094;8.748;2024-01-06T01:05:46;5.30;;;1.90;;
72557;SDS011;60583;50.094;8.748;2024-01-06T01:08:30;6.97;;;2.10;;
72557;SDS011;60583;50.094;8.748;2024-01-06T01:11:14;5.05;;;1.90;;
72557;SDS011;60583;50.094;8.748;2024-01-06T01:13:58;4.70;;;1.75;;
72557;SDS011;60583;50.094;8.748;2024-01-06T01:16:42;5.28;;;2.08;;
72557;SDS011;60583;50.094;8.748;2024-01-06T01:19:26;6.57;;;2.28;;
72557;SDS011;60583;50.094;8.748;2024-01-06T01:22:09;4.75;;;1.90;;
72557;SDS011;60583;50.094;8.748;2024-01-06T01:24:53;7.00;;;2.00;;
72557;SDS011;60583;50.094;8.748;2024-01-06T01:27:37;5.85;;;2.10;;
72557;SDS011;60583;50.094;8.748;2024-01-06T01:30:21;6.68;;;1.95;;
72557;SDS011;60583;50.094;8.748;2024-01-06T01:33:05;5.65;;;2.00;;
72557;SDS011;60583;50.094;8.748;2024-01-06T01:35:49;8.20;;;2.33;;
72557;SDS011;60583;50.094;8.748;2024-01-06T01:38:33;6.28;;;2.00;;
72557;SDS011;60583;50.094;8.748;2024-01-06T01:41:17;5.45;;;2.28;;
72557;SDS011;60583;50.094;8.748;2024-01-06T01:44:01;7.72;;;2.25;;
72557;SDS011;60583;50.094;8.748;2024-01-06T01:46:45;7.10;;;2.22;;
72557;SDS011;60583;50.094;8.748;2024-01-06T01:49:29;5.82;;;1.95;;
72557;SDS011;60583;50.094;8.748;2024-01-06T01:52:13;6.97;;;2.10;;
72557;SDS011;60583;50.094;8.748;2024-01-06T01:54:58;6.60;;;1.88;;
72557;SDS011;60583;50.094;8.748;2024-01-06T01:57:43;5.03;;;2.00;;
72557;SDS011;60583;50.094;8.748;2024-01-06T02:00:27;5.75;;;2.00;;
72557;SDS011;60583;50.094;8.748;2024-01-06T02:03:11;8.55;;;2.20;;
72557;SDS011;60583;50.094;8.748;2024-01-06T02:05:56;8.00;;;2.20;;
72557;SDS011;60583;50.094;8.748;2024-01-06T02:08:40;4.88;;;1.92;;
72557;SDS011;60583;50.094;8.748;2024-01-06T02:11:24;5.85;;;2.00;;
72557;SDS011;60583;50.094;8.748;2024-01-06T02:14:08;5.03;;;2.08;;
72557;SDS011;60583;50.094;8.748;2024-01-06T02:16:52;8.95;;;2.70;;
72557;SDS011;60583;50.094;8.748;2024-01-06T02:19:36;6.43;;;1.98;;
72557;SDS011;60583;50.094;8.748;2024-01-06T02:22:20;6.85;;;2.13;;
72557;SDS011;60583;50.094;8.748;2024-01-06T02:25:05;5.03;;;1.88;;
72557;SDS011;60583;50.094;8.748;2024-01-06T02:27:55;4.63;;;1.80;;
72557;SDS011;60583;50.094;8.748;2024-01-06T02:30:39;5.43;;;2.08;;
72557;SDS011;60583;50.094;8.748;2024-01-06T02:33:23;7.30;;;2.15;;
72557;SDS011;60583;50.094;8.748;2024-01-06T02:36:07;6.82;;;1.70;;
72557;SDS011;60583;50.094;8.748;2024-01-06T02:38:51;4.25;;;1.63;;
72557;SDS011;60583;50.094;8.748;2024-01-06T02:41:35;5.25;;;2.05;;
72557;SDS011;60583;50.094;8.748;2024-01-06T02:44:19;7.18;;;1.80;;
72557;SDS011;60583;50.094;8.748;2024-01-06T02:47:03;5.22;;;2.33;;
72557;SDS011;60583;50.094;8.748;2024-01-06T02:49:47;5.57;;;1.60;;
72557;SDS011;60583;50.094;8.748;2024-01-06T02:52:31;5.60;;;2.00;;
72557;SDS011;60583;50.094;8.748;2024-01-06T02:55:15;4.82;;;1.85;;
72557;SDS011;60583;50.094;8.748;2024-01-06T02:57:58;5.55;;;1.73;;
72557;SDS011;60583;50.094;8.748;2024-01-06T03:00:43;3.83;;;1.40;;
72557;SDS011;60583;50.094;8.748;2024-01-06T03:03:26;6.45;;;1.85;;
72557;SDS011;60583;50.094;8.748;2024-01-06T03:06:10;6.30;;;1.95;;
72557;SDS011;60583;50.094;8.748;2024-01-06T03:08:54;3.70;;;1.67;;
72557;SDS011;60583;50.094;8.748;2024-01-06T03:11:38;5.22;;;1.75;;
72557;SDS011;60583;50.094;8.748;2024-01-06T03:14:22;4.82;;;1.80;;
72557;SDS011;60583;50.094;8.748;2024-01-06T03:17:06;5.82;;;1.80;;
72557;SDS011;60583;50.094;8.748;2024-01-06T03:19:50;4.57;;;1.80;;
72557;SDS011;60583;50.094;8.748;2024-01-06T03:22:35;5.68;;;1.70;;
72557;SDS011;60583;50.094;8.748;2024-01-06T03:25:20;6.25;;;2.20;;
72557;SDS011;60583;50.094;8.748;2024-01-06T03:28:04;7.68;;;1.90;;
72557;SDS011;60583;50.094;8.748;2024-01-06T03:30:48;5.68;;;1.85;;
72557;SDS011;60583;50.094;8.748;2024-01-06T03:33:32;5.72;;;1.80;;
72557;SDS011;60583;50.094;8.748;2024-01-06T03:36:16;4.03;;;1.77;;
72557;SDS011;60583;50.094;8.748;2024-01-06T03:39:00;3.92;;;1.80;;
72557;SDS011;60583;50.094;8.748;2024-01-06T03:41:44;7.32;;;2.00;;
72557;SDS011;60583;50.094;8.748;2024-01-06T03:44:28;5.82;;;1.77;;
72557;SDS011;60583;50.094;8.748;2024-01-06T03:47:13;6.32;;;2.00;;
72557;SDS011;60583;50.094;8.748;2024-01-06T03:49:57;5.07;;;1.65;;
72557;SDS011;60583;50.094;8.748;2024-01-06T03:52:41;7.07;;;2.80;;
72557;SDS011;60583;50.094;8.748;2024-01-06T03:55:25;5.38;;;2.30;;
72557;SDS011;60583;50.094;8.748;2024-01-06T03:58:09;7.88;;;2.10;;
72557;SDS011;60583;50.094;8.748;2024-01-06T04:00:53;5.38;;;2.10;;
72557;SDS011;60583;50.094;8.748;2024-01-06T04:03:38;4.65;;;1.80;;
72557;SDS011;60583;50.094;8.748;2024-01-06T04:06:23;5.78;;;2.00;;
72557;SDS011;60583;50.094;8.748;2024-01-06T04:09:07;6.40;;;1.70;;
72557;SDS011;60583;50.094;8.748;2024-01-06T04:11:52;5.72;;;1.58;;
72557;SDS011;60583;50.094;8.748;2024-01-06T04:14:36;6.30;;;1.98;;
72557;SDS011;60583;50.094;8.748;2024-01-06T04:17:20;6.50;;;1.95;;
72557;SDS011;60583;50.094;8.748;2024-01-06T04:20:04;5.85;;;1.88;;
72557;SDS011;60583;50.094;8.748;2024-01-06T04:22:49;4.57;;;1.70;;
72557;SDS011;60583;50.094;8.748;2024-01-06T04:25:32;8.23;;;3.72;;
72557;SDS011;60583;50.094;8.748;2024-01-06T04:28:17;9.75;;;4.30;;
72557;SDS011;60583;50.094;8.748;2024-01-06T04:31:01;9.98;;;4.32;;
72557;SDS011;60583;50.094;8.748;2024-01-06T04:33:45;7.63;;;2.67;;
72557;SDS011;60583;50.094;8.748;2024-01-06T04:36:29;6.30;;;1.90;;
72557;SDS011;60583;50.094;8.748;2024-01-06T04:39:13;5.93;;;2.10;;
72557;SDS011;60583;50.094;8.748;2024-01-06T04:41:57;6.07;;;2.00;;
72557;SDS011;60583;50.094;8.748;2024-01-06T04:44:41;6.32;;;1.90;;
72557;SDS011;60583;50.094;8.748;2024-01-06T04:47:25;6.95;;;2.10;;
72557;SDS011;60583;50.094;8.748;2024-01-06T04:50:10;5.15;;;2.00;;
72557;SDS011;60583;50.094;8.748;2024-01-06T04:52:54;7.65;;;2.00;;
72557;SDS011;60583;50.094;8.748;2024-01-06T04:55:38;6.10;;;2.33;;
72557;SDS011;60583;50.094;8.748;2024-01-06T04:58:22;3.85;;;1.67;;
72557;SDS011;60583;50.094;8.748;2024-01-06T05:01:06;4.63;;;1.95;;
72557;SDS011;60583;50.094;8.748;2024-01-06T05:03:50;5.25;;;1.77;;
72557;SDS011;60583;50.094;8.748;2024-01-06T05:06:34;4.70;;;1.90;;
72557;SDS011;60583;50.094;8.748;2024-01-06T05:09:18;6.35;;;2.38;;
72557;SDS011;60583;50.094;8.748;2024-01-06T05:12:02;4.57;;;1.60;;
72557;SDS011;60583;50.094;8.748;2024-01-06T05:14:46;6.05;;;2.20;;
72557;SDS011;60583;50.094;8.748;2024-01-06T05:17:30;6.78;;;2.22;;
72557;SDS011;60583;50.094;8.748;2024-01-06T05:20:14;6.43;;;2.40;;
72557;SDS011;60583;50.094;8.748;2024-01-06T05:22:58;6.60;;;2.55;;
72557;SDS011;60583;50.094;8.748;2024-01-06T05:25:42;7.97;;;2.00;;
72557;SDS011;60583;50.094;8.748;2024-01-06T05:28:26;5.13;;;1.98;;
72557;SDS011;60583;50.094;8.748;2024-01-06T05:31:10;5.97;;;2.05;;
72557;SDS011;60583;50.094;8.748;2024-01-06T05:33:54;6.90;;;2.92;;
72557;SDS011;60583;50.094;8.748;2024-01-06T05:36:38;5.38;;;2.28;;
72557;SDS011;60583;50.094;8.748;2024-01-06T05:39:22;5.82;;;2.20;;
72557;SDS011;60583;50.094;8.748;2024-01-06T05:42:06;4.68;;;2.20;;
72557;SDS011;60583;50.094;8.748;2024-01-06T05:44:51;4.63;;;2.03;;
72557;SDS011;60583;50.094;8.748;2024-01-06T05:47:35;5.68;;;2.03;;
72557;SDS011;60583;50.094;8.748;2024-01-06T05:50:19;5.93;;;2.13;;
72557;SDS011;60583;50.094;8.748;2024-01-06T05:53:03;5.35;;;2.22;;
72557;SDS011;60583;50.094;8.748;2024-01-06T05:55:47;5.70;;;2.50;;
72557;SDS011;60583;50.094;8.748;2024-01-06T05:58:32;7.45;;;2.70;;
72557;SDS011;60583;50.094;8.748;2024-01-06T06:01:15;4.82;;;2.20;;
72557;SDS011;60583;50.094;8.748;2024-01-06T06:04:00;5.72;;;2.30;;
72557;SDS011;60583;50.094;8.748;2024-01-06T06:06:44;6.10;;;2.40;;
72557;SDS011;60583;50.094;8.748;2024-01-06T06:09:28;6.28;;;2.38;;
72557;SDS011;60583;50.094;8.748;2024-01-06T06:12:12;6.60;;;2.28;;
72557;SDS011;60583;50.094;8.748;2024-01-06T06:14:57;4.90;;;2.30;;
72557;SDS011;60583;50.094;8.748;2024-01-06T06:17:40;7.35;;;2.33;;
72557;SDS011;60583;50.094;8.748;2024-01-06T06:20:24;6.75;;;2.40;;
72557;SDS011;60583;50.094;8.748;2024-01-06T06:23:08;8.32;;;3.20;;
72557;SDS011;60583;50.094;8.748;2024-01-06T06:25:52;7.45;;;2.28;;
72557;SDS011;60583;50.094;8.748;2024-01-06T06:28:36;8.38;;;2.33;;
72557;SDS011;60583;50.094;8.748;2024-01-06T06:31:20;6.00;;;2.80;;
72557;SDS011;60583;50.094;8.748;2024-01-06T06:34:04;5.90;;;2.22;;
72557;SDS011;60583;50.094;8.748;2024-01-06T06:36:48;5.95;;;2.45;;
72557;SDS011;60583;50.094;8.748;2024-01-06T06:39:33;5.85;;;2.42;;
72557;SDS011;60583;50.094;8.748;2024-01-06T06:42:17;7.05;;;2.40;;
72557;SDS011;60583;50.094;8.748;2024-01-06T06:45:01;5.07;;;2.20;;
72557;SDS011;60583;50.094;8.748;2024-01-06T06:47:45;8.07;;;2.88;;
72557;SDS011;60583;50.094;8.748;2024-01-06T06:50:29;7.35;;;2.90;;
72557;SDS011;60583;50.094;8.748;2024-01-06T06:53:13;5.72;;;2.50;;
72557;SDS011;60583;50.094;8.748;2024-01-06T06:55:57;7.20;;;2.83;;
72557;SDS011;60583;50.094;8.748;2024-01-06T06:58:41;5.45;;;2.20;;
72557;SDS011;60583;50.094;8.748;2024-01-06T07:01:25;5.97;;;2.35;;
72557;SDS011;60583;50.094;8.748;2024-01-06T07:04:09;7.78;;;2.78;;
72557;SDS011;60583;50.094;8.748;2024-01-06T07:06:53;7.50;;;2.70;;
72557;SDS011;60583;50.094;8.748;2024-01-06T07:09:37;6.70;;;2.45;;
72557;SDS011;60583;50.094;8.748;2024-01-06T07:12:21;7.55;;;2.50;;
72557;SDS011;60583;50.094;8.748;2024-01-06T07:15:05;4.82;;;2.50;;
72557;SDS011;60583;50.094;8.748;2024-01-06T07:17:49;5.07;;;2.20;;
72557;SDS011;60583;50.094;8.748;2024-01-06T07:20:33;7.43;;;2.90;;
72557;SDS011;60583;50.094;8.748;2024-01-06T07:23:17;6.82;;;2.78;;
72557;SDS011;60583;50.094;8.748;2024-01-06T07:26:01;7.05;;;3.72;;
72557;SDS011;60583;50.094;8.748;2024-01-06T07:28:45;6.68;;;2.72;;
72557;SDS011;60583;50.094;8.748;2024-01-06T07:31:29;5.65;;;3.17;;
72557;SDS011;60583;50.094;8.748;2024-01-06T07:34:13;7.47;;;2.55;;
72557;SDS011;60583;50.094;8.748;2024-01-06T07:36:57;7.95;;;2.85;;
72557;SDS011;60583;50.094;8.748;2024-01-06T07:39:41;8.63;;;3.08;;
72557;SDS011;60583;50.094;8.748;2024-01-06T07:42:25;7.50;;;3.05;;
72557;SDS011;60583;50.094;8.748;2024-01-06T07:45:09;5.97;;;2.75;;
72557;SDS011;60583;50.094;8.748;2024-01-06T07:47:53;6.40;;;3.10;;
72557;SDS011;60583;50.094;8.748;2024-01-06T07:50:37;6.38;;;2.60;;
72557;SDS011;60583;50.094;8.748;2024-01-06T07:53:21;9.52;;;3.00;;
72557;SDS011;60583;50.094;8.748;2024-01-06T07:56:05;6.47;;;2.97;;
72557;SDS011;60583;50.094;8.748;2024-01-06T07:58:49;7.28;;;2.80;;
72557;SDS011;60583;50.094;8.748;2024-01-06T08:01:33;6.68;;;2.50;;
72557;SDS011;60583;50.094;8.748;2024-01-06T08:04:17;7.80;;;2.80;;
72557;SDS011;60583;50.094;8.748;2024-01-06T08:07:01;6.32;;;2.95;;
72557;SDS011;60583;50.094;8.748;2024-01-06T08:09:45;7.50;;;3.03;;
72557;SDS011;60583;50.094;8.748;2024-01-06T08:12:29;7.88;;;3.35;;
72557;SDS011;60583;50.094;8.748;2024-01-06T08:15:13;5.57;;;2.97;;
72557;SDS011;60583;50.094;8.748;2024-01-06T08:17:57;6.45;;;2.83;;
72557;SDS011;60583;50.094;8.748;2024-01-06T08:20:41;6.65;;;2.67;;
72557;SDS011;60583;50.094;8.748;2024-01-06T08:23:26;6.70;;;3.03;;
72557;SDS011;60583;50.094;8.748;2024-01-06T08:26:10;7.85;;;3.50;;
72557;SDS011;60583;50.094;8.748;2024-01-06T08:28:54;5.95;;;3.20;;
72557;SDS011;60583;50.094;8.748;2024-01-06T08:31:38;7.72;;;3.05;;
72557;SDS011;60583;50.094;8.748;2024-01-06T08:34:22;7.47;;;3.28;;
72557;SDS011;60583;50.094;8.748;2024-01-06T08:37:05;6.28;;;3.28;;
72557;SDS011;60583;50.094;8.748;2024-01-06T08:39:49;7.22;;;3.50;;
72557;SDS011;60583;50.094;8.748;2024-01-06T08:42:33;7.63;;;3.45;;
72557;SDS011;60583;50.094;8.748;2024-01-06T08:45:17;7.88;;;3.58;;
72557;SDS011;60583;50.094;8.748;2024-01-06T08:48:01;7.75;;;3.45;;
72557;SDS011;60583;50.094;8.748;2024-01-06T08:50:45;7.55;;;3.15;;
72557;SDS011;60583;50.094;8.748;2024-01-06T08:53:30;6.88;;;3.30;;
72557;SDS011;60583;50.094;8.748;2024-01-06T08:56:14;8.00;;;3.55;;
72557;SDS011;60583;50.094;8.748;2024-01-06T08:58:59;8.43;;;3.50;;
72557;SDS011;60583;50.094;8.748;2024-01-06T09:01:43;6.95;;;3.40;;
72557;SDS011;60583;50.094;8.748;2024-01-06T09:04:27;7.50;;;3.90;;
72557;SDS011;60583;50.094;8.748;2024-01-06T09:07:11;7.55;;;3.50;;
72557;SDS011;60583;50.094;8.748;2024-01-06T09:09:55;8.43;;;3.55;;
72557;SDS011;60583;50.094;8.748;2024-01-06T09:12:39;8.77;;;3.40;;
72557;SDS011;60583;50.094;8.748;2024-01-06T09:15:23;7.22;;;3.20;;
72557;SDS011;60583;50.094;8.748;2024-01-06T09:18:07;6.22;;;2.83;;
72557;SDS011;60583;50.094;8.748;2024-01-06T09:20:51;8.35;;;3.53;;
72557;SDS011;60583;50.094;8.748;2024-01-06T09:23:35;6.65;;;3.10;;
72557;SDS011;60583;50.094;8.748;2024-01-06T09:26:19;7.30;;;3.40;;
72557;SDS011;60583;50.094;8.748;2024-01-06T09:29:03;6.60;;;3.35;;
72557;SDS011;60583;50.094;8.748;2024-01-06T09:31:47;7.93;;;3.60;;
72557;SDS011;60583;50.094;8.748;2024-01-06T09:34:31;6.55;;;3.53;;
72557;SDS011;60583;50.094;8.748;2024-01-06T09:37:15;8.35;;;3.75;;
72557;SDS011;60583;50.094;8.748;2024-01-06T09:39:59;8.70;;;3.80;;
72557;SDS011;60583;50.094;8.748;2024-01-06T09:42:43;7.78;;;3.70;;
72557;SDS011;60583;50.094;8.748;2024-01-06T09:45:27;7.55;;;3.50;;
72557;SDS011;60583;50.094;8.748;2024-01-06T09:48:12;7.25;;;3.58;;
72557;SDS011;60583;50.094;8.748;2024-01-06T09:50:58;8.20;;;3.67;;
72557;SDS011;60583;50.094;8.748;2024-01-06T09:53:49;9.25;;;4.03;;
72557;SDS011;60583;50.094;8.748;2024-01-06T09:56:40;9.25;;;3.78;;
72557;SDS011;60583;50.094;8.748;2024-01-06T09:59:28;7.15;;;3.30;;
72557;SDS011;60583;50.094;8.748;2024-01-06T10:02:18;9.68;;;3.83;;
72557;SDS011;60583;50.094;8.748;2024-01-06T10:05:02;7.50;;;4.00;;
72557;SDS011;60583;50.094;8.748;2024-01-06T10:07:47;7.82;;;3.95;;
72557;SDS011;60583;50.094;8.748;2024-01-06T10:10:33;7.65;;;3.65;;
72557;SDS011;60583;50.094;8.748;2024-01-06T10:13:18;8.73;;;3.90;;
72557;SDS011;60583;50.094;8.748;2024-01-06T10:16:02;9.07;;;4.22;;
72557;SDS011;60583;50.094;8.748;2024-01-06T10:18:46;8.20;;;4.18;;
72557;SDS011;60583;50.094;8.748;2024-01-06T10:21:31;6.47;;;3.67;;
72557;SDS011;60583;50.094;8.748;2024-01-06T10:24:18;8.93;;;4.10;;
72557;SDS011;60583;50.094;8.748;2024-01-06T10:27:03;11.10;;;4.30;;
72557;SDS011;60583;50.094;8.748;2024-01-06T10:29:47;9.73;;;4.40;;
72557;SDS011;60583;50.094;8.748;2024-01-06T10:32:31;9.23;;;4.20;;
72557;SDS011;60583;50.094;8.748;2024-01-06T10:35:16;7.90;;;4.18;;
72557;SDS011;60583;50.094;8.748;2024-01-06T10:38:08;9.10;;;4.05;;
72557;SDS011;60583;50.094;8.748;2024-01-06T10:41:00;8.90;;;4.18;;
72557;SDS011;60583;50.094;8.748;2024-01-06T10:43:53;8.90;;;4.38;;
72557;SDS011;60583;50.094;8.748;2024-01-06T10:46:40;8.75;;;4.38;;
72557;SDS011;60583;50.094;8.748;2024-01-06T10:49:25;8.55;;;4.55;;
72557;SDS011;60583;50.094;8.748;2024-01-06T10:52:10;8.63;;;4.25;;
72557;SDS011;60583;50.094;8.748;2024-01-06T10:54:55;7.65;;;3.97;;
72557;SDS011;60583;50.094;8.748;2024-01-06T10:57:39;8.95;;;4.10;;
72557;SDS011;60583;50.094;8.748;2024-01-06T11:00:27;10.32;;;4.22;;
72557;SDS011;60583;50.094;8.748;2024-01-06T11:03:10;9.05;;;4.20;;
72557;SDS011;60583;50.094;8.748;2024-01-06T11:05:58;8.30;;;4.57;;
72557;SDS011;60583;50.094;8.748;2024-01-06T11:12:06;10.95;;;3.92;;
72557;SDS011;60583;50.094;8.748;2024-01-06T11:14:51;7.72;;;3.88;;
72557;SDS011;60583;50.094;8.748;2024-01-06T11:20:38;10.82;;;4.57;;
72557;SDS011;60583;50.094;8.748;2024-01-06T11:23:22;8.77;;;4.05;;
72557;SDS011;60583;50.094;8.748;2024-01-06T11:26:06;8.30;;;4.20;;
72557;SDS011;60583;50.094;8.748;2024-01-06T11:28:50;9.40;;;3.97;;
72557;SDS011;60583;50.094;8.748;2024-01-06T11:31:36;6.53;;;3.67;;
72557;SDS011;60583;50.094;8.748;2024-01-06T11:34:21;6.30;;;3.38;;
72557;SDS011;60583;50.094;8.748;2024-01-06T11:37:06;6.75;;;3.92;;
72557;SDS011;60583;50.094;8.748;2024-01-06T11:39:52;7.68;;;3.90;;
72557;SDS011;60583;50.094;8.748;2024-01-06T11:42:37;9.00;;;3.90;;
72557;SDS011;60583;50.094;8.748;2024-01-06T11:45:20;6.70;;;3.65;;
72557;SDS011;60583;50.094;8.748;2024-01-06T11:48:05;10.75;;;4.28;;
72557;SDS011;60583;50.094;8.748;2024-01-06T11:50:50;6.90;;;4.05;;
72557;SDS011;60583;50.094;8.748;2024-01-06T11:53:34;7.00;;;3.55;;
72557;SDS011;60583;50.094;8.748;2024-01-06T11:56:18;7.55;;;3.75;;
72557;SDS011;60583;50.094;8.748;2024-01-06T11:59:06;7.63;;;3.50;;
72557;SDS011;60583;50.094;8.748;2024-01-06T12:01:50;6.93;;;3.80;;
72557;SDS011;60583;50.094;8.748;2024-01-06T12:04:34;8.38;;;3.75;;
72557;SDS011;60583;50.094;8.748;2024-01-06T12:07:19;8.95;;;3.63;;
72557;SDS011;60583;50.094;8.748;2024-01-06T12:10:06;8.48;;;3.70;;
72557;SDS011;60583;50.094;8.748;2024-01-06T12:13:01;7.45;;;3.80;;
72557;SDS011;60583;50.094;8.748;2024-01-06T12:15:46;7.22;;;4.22;;
72557;SDS011;60583;50.094;8.748;2024-01-06T12:18:30;7.22;;;3.90;;
72557;SDS011;60583;50.094;8.748;2024-01-06T12:21:14;7.28;;;4.00;;
72557;SDS011;60583;50.094;8.748;2024-01-06T12:27:16;9.23;;;4.40;;
72557;SDS011;60583;50.094;8.748;2024-01-06T12:30:01;7.68;;;4.10;;
72557;SDS011;60583;50.094;8.748;2024-01-06T12:32:47;8.60;;;4.25;;
72557;SDS011;60583;50.094;8.748;2024-01-06T12:35:32;8.30;;;3.92;;
72557;SDS011;60583;50.094;8.748;2024-01-06T12:38:19;8.55;;;4.15;;
72557;SDS011;60583;50.094;8.748;2024-01-06T12:41:03;7.60;;;4.75;;
72557;SDS011;60583;50.094;8.748;2024-01-06T12:43:48;12.73;;;5.18;;
72557;SDS011;60583;50.094;8.748;2024-01-06T12:46:32;10.98;;;5.40;;
72557;SDS011;60583;50.094;8.748;2024-01-06T12:49:17;9.95;;;5.32;;
72557;SDS011;60583;50.094;8.748;2024-01-06T12:52:01;8.07;;;4.80;;
72557;SDS011;60583;50.094;8.748;2024-01-06T12:54:45;10.35;;;5.07;;
72557;SDS011;60583;50.094;8.748;2024-01-06T12:57:28;7.63;;;3.88;;
72557;SDS011;60583;50.094;8.748;2024-01-06T13:00:13;8.82;;;4.18;;
72557;SDS011;60583;50.094;8.748;2024-01-06T13:02:57;8.55;;;4.38;;
72557;SDS011;60583;50.094;8.748;2024-01-06T13:05:41;7.57;;;4.15;;
72557;SDS011;60583;50.094;8.748;2024-01-06T13:08:25;7.38;;;4.25;;
72557;SDS011;60583;50.094;8.748;2024-01-06T13:11:09;6.22;;;3.85;;
72557;SDS011;60583;50.094;8.748;2024-01-06T13:13:53;7.95;;;4.10;;
72557;SDS011;60583;50.094;8.748;2024-01-06T13:16:37;10.27;;;4.20;;
72557;SDS011;60583;50.094;8.748;2024-01-06T13:19:21;9.48;;;4.30;;
72557;SDS011;60583;50.094;8.748;2024-01-06T13:22:05;6.95;;;3.97;;
72557;SDS011;60583;50.094;8.748;2024-01-06T13:24:49;8.07;;;4.10;;
72557;SDS011;60583;50.094;8.748;2024-01-06T13:27:33;6.60;;;3.90;;
72557;SDS011;60583;50.094;8.748;2024-01-06T13:30:17;7.18;;;3.72;;
72557;SDS011;60583;50.094;8.748;2024-01-06T13:33:01;7.30;;;4.15;;
72557;SDS011;60583;50.094;8.748;2024-01-06T13:35:44;6.90;;;4.10;;
72557;SDS011;60583;50.094;8.748;2024-01-06T13:38:28;6.25;;;4.00;;
72557;SDS011;60583;50.094;8.748;2024-01-06T13:41:12;6.47;;;3.58;;
72557;SDS011;60583;50.094;8.748;2024-01-06T13:43:56;8.73;;;4.15;;
72557;SDS011;60583;50.094;8.748;2024-01-06T13:46:40;8.05;;;4.38;;
72557;SDS011;60583;50.094;8.748;2024-01-06T13:49:28;7.72;;;4.10;;
72557;SDS011;60583;50.094;8.748;2024-01-06T13:52:12;7.93;;;3.90;;
72557;SDS011;60583;50.094;8.748;2024-01-06T13:54:56;7.38;;;4.22;;
72557;SDS011;60583;50.094;8.748;2024-01-06T13:57:40;6.65;;;4.03;;
72557;SDS011;60583;50.094;8.748;2024-01-06T14:00:27;8.50;;;4.72;;
72557;SDS011;60583;50.094;8.748;2024-01-06T14:03:11;7.20;;;4.03;;
72557;SDS011;60583;50.094;8.748;2024-01-06T14:05:55;7.18;;;4.13;;
72557;SDS011;60583;50.094;8.748;2024-01-06T14:08:39;6.60;;;3.80;;
72557;SDS011;60583;50.094;8.748;2024-01-06T14:11:25;7.07;;;4.10;;
72557;SDS011;60583;50.094;8.748;2024-01-06T14:14:10;7.20;;;3.72;;
72557;SDS011;60583;50.094;8.748;2024-01-06T14:16:54;7.32;;;3.72;;
72557;SDS011;60583;50.094;8.748;2024-01-06T14:19:37;7.95;;;3.33;;
72557;SDS011;60583;50.094;8.748;2024-01-06T14:22:21;9.07;;;3.75;;
72557;SDS011;60583;50.094;8.748;2024-01-06T14:25:05;7.03;;;3.70;;
72557;SDS011;60583;50.094;8.748;2024-01-06T14:27:50;8.05;;;4.05;;
72557;SDS011;60583;50.094;8.748;2024-01-06T14:30:34;7.30;;;3.88;;
72557;SDS011;60583;50.094;8.748;2024-01-06T14:33:18;8.43;;;4.00;;
72557;SDS011;60583;50.094;8.748;2024-01-06T14:36:02;9.68;;;3.63;;
72557;SDS011;60583;50.094;8.748;2024-01-06T14:38:46;7.68;;;3.83;;
72557;SDS011;60583;50.094;8.748;2024-01-06T14:41:30;7.50;;;3.47;;
72557;SDS011;60583;50.094;8.748;2024-01-06T14:44:14;6.45;;;3.72;;
72557;SDS011;60583;50.094;8.748;2024-01-06T14:46:58;6.35;;;3.30;;
72557;SDS011;60583;50.094;8.748;2024-01-06T14:49:42;7.28;;;4.03;;
72557;SDS011;60583;50.094;8.748;2024-01-06T14:52:26;9.93;;;5.35;;
72557;SDS011;60583;50.094;8.748;2024-01-06T14:55:11;8.60;;;3.85;;
72557;SDS011;60583;50.094;8.748;2024-01-06T14:57:55;7.57;;;4.30;;
72557;SDS011;60583;50.094;8.748;2024-01-06T15:00:39;7.22;;;3.90;;
72557;SDS011;60583;50.094;8.748;2024-01-06T15:03:23;8.18;;;4.10;;
72557;SDS011;60583;50.094;8.748;2024-01-06T15:06:07;8.70;;;3.83;;
72557;SDS011;60583;50.094;8.748;2024-01-06T15:08:52;7.40;;;3.85;;
72557;SDS011;60583;50.094;8.748;2024-01-06T15:11:37;7.97;;;4.10;;
72557;SDS011;60583;50.094;8.748;2024-01-06T15:14:21;6.85;;;3.67;;
72557;SDS011;60583;50.094;8.748;2024-01-06T15:17:05;7.40;;;3.70;;
72557;SDS011;60583;50.094;8.748;2024-01-06T15:19:49;7.35;;;3.53;;
72557;SDS011;60583;50.094;8.748;2024-01-06T15:22:34;8.32;;;4.18;;
72557;SDS011;60583;50.094;8.748;2024-01-06T15:25:18;8.27;;;3.55;;
72557;SDS011;60583;50.094;8.748;2024-01-06T15:28:03;6.85;;;3.33;;
72557;SDS011;60583;50.094;8.748;2024-01-06T15:30:47;7.97;;;3.60;;
72557;SDS011;60583;50.094;8.748;2024-01-06T15:33:31;8.95;;;3.55;;
72557;SDS011;60583;50.094;8.748;2024-01-06T15:36:15;7.38;;;3.35;;
72557;SDS011;60583;50.094;8.748;2024-01-06T15:38:59;6.25;;;3.38;;
72557;SDS011;60583;50.094;8.748;2024-01-06T15:41:42;6.80;;;3.13;;
72557;SDS011;60583;50.094;8.748;2024-01-06T15:44:26;12.40;;;5.65;;
72557;SDS011;60583;50.094;8.748;2024-01-06T15:47:11;8.02;;;3.72;;
72557;SDS011;60583;50.094;8.748;2024-01-06T15:49:55;7.80;;;3.53;;
72557;SDS011;60583;50.094;8.748;2024-01-06T15:52:39;6.68;;;3.17;;
72557;SDS011;60583;50.094;8.748;2024-01-06T15:55:23;6.95;;;3.10;;
72557;SDS011;60583;50.094;8.748;2024-01-06T15:58:07;6.80;;;2.80;;
72557;SDS011;60583;50.094;8.748;2024-01-06T16:00:51;7.35;;;3.20;;
72557;SDS011;60583;50.094;8.748;2024-01-06T16:03:35;7.95;;;3.03;;
72557;SDS011;60583;50.094;8.748;2024-01-06T16:06:19;6.88;;;3.25;;
72557;SDS011;60583;50.094;8.748;2024-01-06T16:09:03;6.13;;;2.90;;
72557;SDS011;60583;50.094;8.748;2024-01-06T16:11:49;8.77;;;4.18;;
72557;SDS011;60583;50.094;8.748;2024-01-06T16:14:34;7.32;;;3.40;;
72557;SDS011;60583;50.094;8.748;2024-01-06T16:17:19;6.75;;;2.92;;
72557;SDS011;60583;50.094;8.748;2024-01-06T16:20:03;7.03;;;3.50;;
72557;SDS011;60583;50.094;8.748;2024-01-06T16:22:47;7.57;;;3.53;;
72557;SDS011;60583;50.094;8.748;2024-01-06T16:25:36;5.97;;;2.67;;
72557;SDS011;60583;50.094;8.748;2024-01-06T16:28:21;6.47;;;3.22;;
72557;SDS011;60583;50.094;8.748;2024-01-06T16:31:05;5.70;;;2.55;;
72557;SDS011;60583;50.094;8.748;2024-01-06T16:33:49;5.38;;;2.50;;
72557;SDS011;60583;50.094;8.748;2024-01-06T16:36:33;5.32;;;2.47;;
72557;SDS011;60583;50.094;8.748;2024-01-06T16:39:17;6.13;;;2.88;;